KLSE/LSE METAR and TAF weather

Enter ICAO airport designator
Station Type Date Time Source
KLSE METAR 2020/05/26 05:53 UTC NOAA

KLSE 260553Z AUTO 09003KT 9SM -RA BKN110 20/19 A2992 RMK AO2 SLP124 P0012 60108 T02000189 10289 20200 402940200 50001


Station Type Date Time Source
KLSE Decoded METAR 2020/05/26 05:53 UTC NOAA

LA CROSSE MUNICIPAL AIRPORT , WI, United States (KLSE) 43-53N 091-15W 200M
May 26, 2020 - 01:53 AM EDT / 2020.05.26 0553 UTC
Wind: from the E (090 degrees) at 3 MPH (3 KT):0
Visibility: 9 mile(s):0
Sky conditions: mostly cloudy
Weather: light rain
Precipitation last hour: 0.12 inches
Temperature: 68.0 F (20.0 C)
Dew Point: 66.0 F (18.9 C)
Relative Humidity: 93%
Pressure (altimeter): 29.92 in. Hg (1013 hPa)
Pressure tendency: 0.00 inches (0.1 hPa) higher than three hours ago
ob: KLSE 260553Z AUTO 09003KT 9SM -RA BKN110 20/19 A2992 RMK AO2 SLP124 P0012 60108 T02000189 10289 20200 402940200 50001
cycle: 6

Station Type Date Time Source
KLSE TAF 2020/05/26 06:27 UTC NOAA

TAF KLSE 260525Z 2606/2706 VRB03KT P6SM -SHRA SCT025 BKN100
TEMPO 2606/2607 2SM TSRA BKN025CB
FM260700 VRB03KT P6SM BKN100
FM261400 17006KT P6SM BKN120
FM261900 17009KT P6SM -SHRA VCTS SCT060CB BKN120
FM270000 17009KT P6SM VCSH BKN120

Example: see airport list